Time;durP1;ratioP1;P1;durP2;ratioP2;P2;SDS_P1;SDS_P2;PMS_P1;PMS_P2;Temp;Humidity;BMP_temperature;BMP_pressure;BME280_temperature;BME280_humidity;BME280_pressure;Samples;Min_cycle;Max_cycle;Signal;HPM_P1;HPM_P2
2023/02/17 00:02:06;;;;;;;22.20;17.63;;;11.20;99.90;;;;;;5075330;28;20049;-89
2023/02/17 00:04:34;;;;;;;25.35;17.90;;;11.20;99.90;;;;;;5074665;28;20024;-88
2023/02/17 00:06:59;;;;;;;22.58;17.25;;;11.20;99.90;;;;;;5065584;28;20073;-88
2023/02/17 00:09:34;;;;;;;21.17;16.05;;;11.20;99.90;;;;;;5061738;28;20384;-88
2023/02/17 00:11:59;;;;;;;20.02;15.07;;;11.20;99.90;;;;;;5065305;28;20119;-88
2023/02/17 00:14:25;;;;;;;19.30;15.13;;;11.20;99.90;;;;;;5070908;28;20109;-89
2023/02/17 00:16:51;;;;;;;18.58;13.90;;;11.20;99.90;;;;;;5074576;28;20025;-88
2023/02/17 00:19:22;;;;;;;19.70;14.10;;;11.20;99.90;;;;;;5073601;28;20024;-88
2023/02/17 00:21:59;;;;;;;18.73;13.65;;;11.20;99.90;;;;;;5071811;28;20047;-88
2023/02/17 00:24:27;;;;;;;18.42;12.80;;;11.20;99.90;;;;;;5062845;28;20119;-88
2023/02/17 00:26:53;;;;;;;15.88;12.48;;;11.20;99.90;;;;;;5060564;28;20028;-88
2023/02/17 00:29:19;;;;;;;14.60;11.70;;;11.20;99.90;;;;;;5060322;28;20464;-88
2023/02/17 00:31:45;;;;;;;15.70;11.88;;;11.30;99.90;;;;;;5044458;28;20040;-88
2023/02/17 00:34:12;;;;;;;15.13;10.85;;;11.20;99.90;;;;;;5060058;28;20594;-88
2023/02/17 00:36:40;;;;;;;14.57;11.10;;;11.30;99.90;;;;;;5043430;28;20044;-88
2023/02/17 00:39:06;;;;;;;16.63;12.18;;;11.20;99.90;;;;;;5060572;28;20128;-88
2023/02/17 00:41:32;;;;;;;14.20;11.00;;;11.30;99.90;;;;;;5044569;28;20036;-88
2023/02/17 00:43:58;;;;;;;13.32;10.93;;;11.20;99.90;;;;;;5060174;28;20021;-87
2023/02/17 00:46:25;;;;;;;15.80;11.95;;;11.30;99.90;;;;;;5043584;28;20032;-87
2023/02/17 00:48:51;;;;;;;15.95;10.88;;;11.30;99.90;;;;;;5060472;28;20024;-87
2023/02/17 00:51:18;;;;;;;14.77;11.63;;;11.30;99.90;;;;;;5060302;28;20043;-87
2023/02/17 00:53:46;;;;;;;14.85;11.77;;;11.30;99.90;;;;;;5043285;28;20033;-87
2023/02/17 00:56:12;;;;;;;14.52;11.02;;;11.30;99.90;;;;;;5060158;28;20024;-87
2023/02/17 00:58:40;;;;;;;14.73;12.25;;;11.30;99.90;;;;;;5068132;28;20020;-88
2023/02/17 01:01:06;;;;;;;17.42;12.88;;;11.30;99.90;;;;;;5078119;28;20111;-87
2023/02/17 01:03:31;;;;;;;14.13;11.35;;;11.30;99.90;;;;;;5082313;28;20051;-88
2023/02/17 01:05:57;;;;;;;16.80;12.98;;;11.30;99.90;;;;;;5083221;28;20055;-87
2023/02/17 01:08:24;;;;;;;15.40;12.82;;;11.30;99.90;;;;;;5059431;28;20076;-88
2023/02/17 01:10:51;;;;;;;16.50;12.95;;;11.30;99.90;;;;;;5080705;28;20066;-88
2023/02/17 01:13:17;;;;;;;19.02;14.60;;;11.30;99.90;;;;;;5082186;28;20100;-87
2023/02/17 01:15:49;;;;;;;16.63;13.63;;;11.30;99.90;;;;;;5064376;28;20036;-87
2023/02/17 01:18:17;;;;;;;17.17;13.88;;;11.30;99.90;;;;;;5059509;28;20135;-87
2023/02/17 01:20:43;;;;;;;17.70;13.93;;;11.30;99.90;;;;;;5060357;28;20082;-87
2023/02/17 01:23:13;;;;;;;17.65;14.52;;;11.20;99.90;;;;;;5059146;28;20028;-88
2023/02/17 01:25:45;;;;;;;17.35;13.70;;;11.30;99.90;;;;;;5059306;28;20420;-88
2023/02/17 01:28:16;;;;;;;16.20;12.45;;;11.30;99.90;;;;;;5058410;28;20024;-89
2023/02/17 01:30:42;;;;;;;16.92;13.60;;;11.20;99.90;;;;;;5059069;28;20025;-88
2023/02/17 01:33:07;;;;;;;17.02;13.65;;;11.20;99.90;;;;;;5042628;28;20384;-88
2023/02/17 01:35:34;;;;;;;17.80;13.32;;;11.30;99.90;;;;;;5058787;28;20060;-87
2023/02/17 01:38:00;;;;;;;16.48;13.52;;;11.20;99.90;;;;;;5059036;28;20023;-88
2023/02/17 01:40:25;;;;;;;16.40;12.50;;;11.30;99.90;;;;;;5058719;28;20372;-88
2023/02/17 01:42:54;;;;;;;17.15;13.23;;;11.30;99.90;;;;;;5042463;28;20036;-89
2023/02/17 01:45:19;;;;;;;17.17;13.35;;;11.30;99.90;;;;;;5041799;28;20063;-88
2023/02/17 01:47:58;;;;;;;16.23;12.38;;;11.30;99.90;;;;;;5058977;28;20063;-88
2023/02/17 01:50:29;;;;;;;16.42;12.45;;;11.30;99.90;;;;;;5059508;28;20050;-88
2023/02/17 01:52:55;;;;;;;;;;;11.30;99.90;;;;;;5059290;28;20033;-88
2023/02/17 01:55:23;;;;;;;16.27;12.48;;;11.30;99.90;;;;;;5058370;28;20006;-87
2023/02/17 01:57:52;;;;;;;16.67;12.50;;;11.30;99.90;;;;;;5058372;28;20333;-88
2023/02/17 02:00:20;;;;;;;17.33;13.13;;;11.30;99.90;;;;;;5057759;28;20024;-88
2023/02/17 02:02:48;;;;;;;18.85;13.40;;;11.30;99.90;;;;;;5058055;28;20473;-88
2023/02/17 02:05:16;;;;;;;17.40;12.55;;;11.30;99.90;;;;;;5074862;28;20458;-89
2023/02/17 02:07:44;;;;;;;17.50;13.68;;;11.30;99.90;;;;;;5057740;28;20024;-87
2023/02/17 02:10:12;;;;;;;16.92;13.23;;;11.30;99.90;;;;;;5058219;28;20059;-88
2023/02/17 02:12:42;;;;;;;22.08;14.13;;;11.30;99.90;;;;;;5058220;28;20024;-89
2023/02/17 02:15:21;;;;;;;20.75;14.35;;;11.30;99.90;;;;;;5058681;28;20052;-88
2023/02/17 02:18:10;;;;;;;22.25;14.02;;;11.30;99.90;;;;;;5058228;28;20422;-88
2023/02/17 02:21:14;;;;;;;20.00;13.60;;;11.40;99.90;;;;;;5058236;28;20020;-87
2023/02/17 02:23:59;;;;;;;23.52;14.82;;;11.30;99.90;;;;;;5057261;28;20032;-87
2023/02/17 02:26:43;;;;;;;20.85;14.40;;;11.40;99.90;;;;;;5057953;28;20021;-87
2023/02/17 02:29:48;;;;;;;22.63;14.57;;;11.30;99.90;;;;;;5057432;28;20464;-87
2023/02/17 02:32:51;;;;;;;21.25;13.65;;;11.30;99.90;;;;;;5035607;28;20044;-87
2023/02/17 02:35:26;;;;;;;18.83;13.63;;;11.30;99.90;;;;;;5057769;28;20107;-87
2023/02/17 02:38:20;;;;;;;22.15;15.55;;;11.30;99.90;;;;;;5057737;28;20024;-88
2023/02/17 02:40:51;;;;;;;24.92;14.93;;;11.30;99.90;;;;;;5052672;28;20043;-88
2023/02/17 02:43:17;;;;;;;24.77;15.45;;;11.30;99.90;;;;;;5057578;28;20123;-87
2023/02/17 02:45:43;;;;;;;22.45;14.75;;;11.30;99.90;;;;;;5057076;28;20025;-87
2023/02/17 02:48:12;;;;;;;26.42;16.88;;;11.30;99.90;;;;;;5057864;28;20036;-87
2023/02/17 02:51:03;;;;;;;24.23;16.42;;;11.30;99.90;;;;;;5057422;28;20036;-88
2023/02/17 02:53:28;;;;;;;;;;;11.30;99.90;;;;;;5075096;28;20136;-87
2023/02/17 02:56:35;;;;;;;21.02;14.90;;;11.30;99.90;;;;;;5056867;28;20326;-87
2023/02/17 02:59:17;;;;;;;20.92;14.30;;;11.30;99.90;;;;;;5057288;28;20023;-88
2023/02/17 03:01:46;;;;;;;22.15;14.90;;;11.30;99.90;;;;;;5057095;28;20580;-88
2023/02/17 03:04:25;;;;;;;21.23;15.13;;;11.40;99.90;;;;;;5057014;28;20468;-88
2023/02/17 03:07:00;;;;;;;21.85;14.43;;;11.30;99.90;;;;;;5057513;28;20392;-88
2023/02/17 03:09:30;;;;;;;20.42;14.30;;;11.30;99.90;;;;;;5074849;28;20028;-88
2023/02/17 03:11:57;;;;;;;20.38;13.68;;;11.30;99.90;;;;;;5057212;28;20532;-90
2023/02/17 03:14:25;;;;;;;19.85;13.35;;;11.30;99.90;;;;;;5057175;28;20050;-89
2023/02/17 03:16:54;;;;;;;18.23;13.32;;;11.30;99.90;;;;;;5057176;28;20094;-89
2023/02/17 03:19:23;;;;;;;17.90;12.57;;;11.30;99.90;;;;;;5057467;28;20053;-89
2023/02/17 03:21:52;;;;;;;16.05;11.52;;;11.30;99.90;;;;;;5056676;28;20063;-87
2023/02/17 03:24:19;;;;;;;16.02;11.65;;;11.30;99.90;;;;;;5057330;28;20388;-87
2023/02/17 03:26:44;;;;;;;18.42;11.60;;;11.30;99.90;;;;;;5056826;28;20481;-87
2023/02/17 03:29:10;;;;;;;17.98;12.32;;;11.30;99.90;;;;;;5056943;28;20059;-88
2023/02/17 03:31:37;;;;;;;16.15;11.38;;;11.30;99.90;;;;;;5056274;28;20373;-87
2023/02/17 03:34:03;;;;;;;17.10;11.77;;;11.30;99.90;;;;;;5056745;28;20021;-88
2023/02/17 03:36:29;;;;;;;16.48;11.15;;;11.30;99.90;;;;;;5056361;28;20032;-88
2023/02/17 03:38:55;;;;;;;15.07;10.82;;;11.30;99.90;;;;;;5040452;28;20409;-88
2023/02/17 03:41:23;;;;;;;15.00;10.98;;;11.30;99.90;;;;;;5040030;28;20032;-88
2023/02/17 03:43:49;;;;;;;15.55;10.25;;;11.30;99.90;;;;;;5040330;28;20094;-87
2023/02/17 03:46:16;;;;;;;14.05;9.93;;;11.30;99.90;;;;;;5057028;28;20028;-88
2023/02/17 03:48:42;;;;;;;15.43;11.10;;;11.30;99.90;;;;;;5057795;28;20484;-88
2023/02/17 03:51:14;;;;;;;14.15;10.73;;;11.30;99.90;;;;;;5057805;28;20020;-87
2023/02/17 03:53:40;;;;;;;15.38;10.43;;;11.30;99.90;;;;;;5056825;28;20037;-88
2023/02/17 03:56:06;;;;;;;15.70;9.75;;;11.30;99.90;;;;;;5040692;28;20029;-88
2023/02/17 03:58:32;;;;;;;13.20;9.60;;;11.30;99.90;;;;;;5056673;28;20030;-88
2023/02/17 04:00:58;;;;;;;13.20;9.35;;;11.30;99.90;;;;;;5056977;28;20024;-88
2023/02/17 04:03:24;;;;;;;14.43;10.07;;;11.30;99.90;;;;;;5056220;28;20125;-88
2023/02/17 04:05:49;;;;;;;13.45;9.70;;;11.30;99.90;;;;;;5056338;28;20541;-89
2023/02/17 04:08:21;;;;;;;14.77;10.88;;;11.30;99.90;;;;;;5056645;28;20108;-89
2023/02/17 04:10:51;;;;;;;14.73;10.75;;;11.30;99.90;;;;;;5057174;28;20033;-89
2023/02/17 04:13:20;;;;;;;13.80;10.20;;;11.30;99.90;;;;;;5059795;28;20024;-90
2023/02/17 04:15:46;;;;;;;15.45;9.98;;;11.30;99.90;;;;;;5057207;28;20078;-89
2023/02/17 04:18:15;;;;;;;15.35;10.48;;;11.30;99.90;;;;;;5056700;28;20029;-89
2023/02/17 04:20:41;;;;;;;13.88;10.18;;;11.30;99.90;;;;;;5062717;28;20048;-89
2023/02/17 04:23:14;;;;;;;14.15;11.40;;;11.30;99.90;;;;;;5078430;28;20042;-90
2023/02/17 04:25:41;;;;;;;14.68;11.48;;;11.30;99.90;;;;;;5080929;28;20084;-91
2023/02/17 04:28:07;;;;;;;17.48;12.73;;;11.30;99.90;;;;;;5080331;28;20020;-89
2023/02/17 04:30:34;;;;;;;16.13;12.20;;;11.40;99.90;;;;;;5080109;28;20013;-91
2023/02/17 04:33:00;;;;;;;16.05;12.75;;;11.30;99.90;;;;;;5079719;28;20040;-89
2023/02/17 04:35:26;;;;;;;17.20;13.68;;;11.30;99.90;;;;;;5078407;28;20020;-89
2023/02/17 04:37:52;;;;;;;18.83;14.18;;;11.30;99.90;;;;;;5074166;28;20032;-89
2023/02/17 04:40:18;;;;;;;19.73;14.90;;;11.40;99.90;;;;;;5064274;28;20029;-90
2023/02/17 04:42:44;;;;;;;21.17;15.43;;;11.40;99.90;;;;;;5057608;28;20472;-89
2023/02/17 04:45:10;;;;;;;29.88;16.08;;;11.30;99.90;;;;;;5056719;28;20032;-89
2023/02/17 04:47:37;;;;;;;20.27;16.02;;;11.30;99.90;;;;;;5056976;28;20017;-90
2023/02/17 04:50:06;;;;;;;23.42;15.63;;;11.30;99.90;;;;;;5060050;28;20013;-89
2023/02/17 04:52:34;;;;;;;20.52;15.00;;;11.30;99.90;;;;;;5060489;28;20074;-89
2023/02/17 04:55:02;;;;;;;20.33;15.93;;;11.30;99.90;;;;;;5078111;28;20027;-89
2023/02/17 04:57:31;;;;;;;20.90;15.55;;;11.30;99.90;;;;;;5060086;28;20031;-88
2023/02/17 04:59:56;;;;;;;21.33;15.90;;;11.30;99.90;;;;;;5059813;28;20027;-90
2023/02/17 05:02:25;;;;;;;22.13;15.95;;;11.30;99.90;;;;;;5059670;28;20484;-90
2023/02/17 05:04:51;;;;;;;21.85;14.75;;;11.30;99.90;;;;;;5059447;28;20040;-89
2023/02/17 05:07:18;;;;;;;21.20;16.17;;;11.40;99.90;;;;;;5059901;28;20046;-88
2023/02/17 05:09:47;;;;;;;21.60;15.90;;;11.30;99.90;;;;;;5059398;28;20032;-89
2023/02/17 05:12:12;;;;;;;21.65;16.48;;;11.30;99.90;;;;;;5059677;28;20033;-89
2023/02/17 05:14:41;;;;;;;20.75;15.77;;;11.30;99.90;;;;;;5059598;28;20043;-89
2023/02/17 05:17:24;;;;;;;22.25;15.52;;;11.40;99.90;;;;;;5059402;28;20028;-90
2023/02/17 05:19:50;;;;;;;25.80;16.52;;;11.30;99.90;;;;;;5058954;28;20025;-89
2023/02/17 05:22:16;;;;;;;24.70;17.33;;;11.40;99.90;;;;;;5059611;28;20033;-89
2023/02/17 05:24:42;;;;;;;24.45;17.35;;;11.30;99.90;;;;;;5059132;28;20081;-88
2023/02/17 05:27:07;;;;;;;26.13;17.33;;;11.30;99.90;;;;;;5042383;28;20083;-89
2023/02/17 05:29:36;;;;;;;26.08;18.00;;;11.30;99.90;;;;;;5060338;28;20035;-89
2023/02/17 05:32:04;;;;;;;25.55;18.85;;;11.30;99.90;;;;;;5060716;28;20035;-89
2023/02/17 05:34:32;;;;;;;28.83;18.25;;;11.30;99.90;;;;;;5044136;28;20048;-89
2023/02/17 05:37:01;;;;;;;26.17;18.20;;;11.30;99.90;;;;;;5042836;28;20025;-89
2023/02/17 05:39:27;;;;;;;26.05;19.88;;;11.30;99.90;;;;;;5059415;28;20029;-89
2023/02/17 05:41:55;;;;;;;24.80;18.45;;;11.20;99.90;;;;;;5059106;28;20039;-90
2023/02/17 05:44:23;;;;;;;28.67;18.58;;;11.20;99.90;;;;;;5076747;28;20036;-90
2023/02/17 05:46:49;;;;;;;27.90;19.73;;;11.30;99.90;;;;;;5058640;28;20098;-90
2023/02/17 05:49:14;;;;;;;26.42;19.83;;;11.20;99.90;;;;;;5058848;28;20059;-90
2023/02/17 05:51:40;;;;;;;25.77;19.38;;;11.20;99.90;;;;;;5057739;28;20094;-90
2023/02/17 05:54:06;;;;;;;26.85;19.75;;;11.20;99.90;;;;;;5042048;28;20029;-88
2023/02/17 05:56:46;;;;;;;25.83;19.48;;;11.20;99.90;;;;;;5059321;28;20071;-89
2023/02/17 06:02:10;;;;;;;29.13;20.92;;;11.20;99.90;;;;;;5061560;28;20047;-89
2023/02/17 06:04:45;;;;;;;26.42;19.65;;;11.30;99.90;;;;;;5057648;28;20041;-89
2023/02/17 06:07:11;;;;;;;28.80;19.77;;;11.30;99.90;;;;;;5058409;28;20033;-89
2023/02/17 06:09:37;;;;;;;24.85;18.75;;;11.20;99.90;;;;;;5058242;28;20370;-88
2023/02/17 06:12:03;;;;;;;26.98;19.65;;;11.20;99.90;;;;;;5058494;28;20033;-89
2023/02/17 06:14:29;;;;;;;27.42;19.75;;;11.20;99.90;;;;;;5058779;28;20074;-89
2023/02/17 06:16:55;;;;;;;22.77;18.00;;;11.20;99.90;;;;;;5058444;28;20111;-88
2023/02/17 06:19:24;;;;;;;23.27;18.25;;;11.20;99.90;;;;;;5043747;28;20082;-87
2023/02/17 06:21:50;;;;;;;24.40;18.45;;;11.20;99.90;;;;;;5042880;28;20064;-89
2023/02/17 06:24:18;;;;;;;24.60;17.77;;;11.20;99.90;;;;;;5058381;28;20447;-89
2023/02/17 06:26:44;;;;;;;24.00;17.35;;;11.20;99.90;;;;;;5041063;28;20028;-89
2023/02/17 06:29:09;;;;;;;20.48;15.95;;;11.20;99.90;;;;;;5057982;28;20017;-89
2023/02/17 06:31:35;;;;;;;21.40;16.23;;;11.20;99.90;;;;;;5058126;28;20375;-88
2023/02/17 06:34:06;;;;;;;23.90;16.88;;;11.20;99.90;;;;;;5057387;28;20111;-89
2023/02/17 06:36:34;;;;;;;21.30;16.98;;;11.30;99.90;;;;;;5058466;28;20025;-89
2023/02/17 06:39:09;;;;;;;21.48;16.35;;;11.30;99.90;;;;;;5057920;28;20021;-89
2023/02/17 06:41:34;;;;;;;21.38;15.80;;;11.20;99.90;;;;;;5058374;28;20052;-89
2023/02/17 06:44:00;;;;;;;20.38;16.02;;;11.20;99.90;;;;;;5075530;28;20464;-89
2023/02/17 06:46:26;;;;;;;22.33;16.20;;;11.20;99.90;;;;;;5057995;28;20084;-89
2023/02/17 06:49:04;;;;;;;21.02;15.52;;;11.20;99.90;;;;;;5057743;28;20024;-89
2023/02/17 06:51:30;;;;;;;20.70;15.55;;;11.20;99.90;;;;;;5041978;28;20024;-88
2023/02/17 06:53:58;;;;;;;22.95;16.02;;;11.30;99.90;;;;;;5057493;28;20027;-89
2023/02/17 06:56:24;;;;;;;19.38;14.70;;;11.30;99.90;;;;;;5041393;28;20029;-89
2023/02/17 06:58:50;;;;;;;22.65;16.50;;;11.30;99.90;;;;;;5057414;28;20027;-89
2023/02/17 07:01:19;;;;;;;23.30;16.08;;;11.30;99.90;;;;;;5057604;28;20020;-89
2023/02/17 07:03:45;;;;;;;23.83;17.33;;;11.30;99.90;;;;;;5056800;28;20052;-88
2023/02/17 07:06:11;;;;;;;21.45;15.75;;;11.30;99.90;;;;;;5055952;28;20070;-90
2023/02/17 07:08:39;;;;;;;22.00;16.38;;;11.30;99.90;;;;;;5055716;28;20020;-90
2023/02/17 07:11:06;;;;;;;22.08;16.00;;;11.30;99.90;;;;;;5056399;28;20020;-88
2023/02/17 07:13:33;;;;;;;20.88;15.25;;;11.30;99.90;;;;;;5057314;28;20119;-89
2023/02/17 07:15:58;;;;;;;20.85;15.90;;;11.30;99.90;;;;;;5056843;28;20031;-89
2023/02/17 07:18:24;;;;;;;20.70;15.50;;;11.30;99.90;;;;;;5057335;28;20024;-88
2023/02/17 07:20:50;;;;;;;19.95;14.95;;;11.30;99.90;;;;;;5056908;28;20017;-89
2023/02/17 07:23:25;;;;;;;20.95;16.17;;;11.30;99.90;;;;;;5040609;28;20411;-90
2023/02/17 07:25:50;;;;;;;19.70;15.48;;;11.30;99.90;;;;;;5056999;28;20081;-89
2023/02/17 07:28:16;;;;;;;23.95;15.40;;;11.30;99.90;;;;;;5056960;28;20029;-89
2023/02/17 07:30:43;;;;;;;20.55;15.15;;;11.30;99.90;;;;;;5056814;28;20028;-89
2023/02/17 07:33:09;;;;;;;24.88;16.40;;;11.40;99.90;;;;;;5056737;28;20036;-88
2023/02/17 07:35:45;;;;;;;21.38;15.93;;;11.40;99.90;;;;;;5052931;28;20017;-89
2023/02/17 07:38:13;;;;;;;21.35;16.23;;;11.40;99.90;;;;;;5052396;28;20036;-89
2023/02/17 07:40:39;;;;;;;20.45;16.77;;;11.40;99.90;;;;;;5041181;28;20027;-88
2023/02/17 07:43:04;;;;;;;23.63;17.30;;;11.40;99.90;;;;;;5037953;28;20536;-88
2023/02/17 07:45:30;;;;;;;24.67;18.75;;;11.40;99.90;;;;;;5045250;28;20021;-88
2023/02/17 07:47:58;;;;;;;23.38;17.65;;;11.40;99.90;;;;;;5043970;28;20031;-87
2023/02/17 07:50:24;;;;;;;26.92;18.27;;;11.50;99.90;;;;;;5079484;28;20023;-89
2023/02/17 07:52:50;;;;;;;25.98;18.65;;;11.50;99.90;;;;;;5062722;28;20021;-87
2023/02/17 07:55:18;;;;;;;22.20;18.05;;;11.40;99.90;;;;;;5063734;28;20060;-89
2023/02/17 07:57:46;;;;;;;26.33;18.73;;;11.40;99.90;;;;;;5076087;28;20054;-89
2023/02/17 08:00:13;;;;;;;26.98;18.55;;;11.50;99.90;;;;;;5043022;28;20096;-90
2023/02/17 08:02:39;;;;;;;26.17;18.30;;;11.50;99.90;;;;;;5075401;28;20072;-88
2023/02/17 08:05:05;;;;;;;22.52;17.27;;;11.50;99.90;;;;;;5075803;28;20075;-90
2023/02/17 08:07:35;;;;;;;23.15;17.02;;;11.50;99.90;;;;;;5060968;28;20051;-88
2023/02/17 08:15:34;;;;;;;21.58;16.00;;;11.50;99.90;;;;;;5073209;28;20075;-88
2023/02/17 08:18:03;;;;;;;21.15;15.70;;;11.60;99.90;;;;;;5040010;28;20024;-88
2023/02/17 08:20:31;;;;;;;19.27;14.43;;;11.60;99.90;;;;;;5072142;28;20093;-88
2023/02/17 08:22:57;;;;;;;19.63;14.95;;;11.60;99.90;;;;;;5062853;28;20442;-89
2023/02/17 08:25:32;;;;;;;19.75;14.50;;;11.60;99.90;;;;;;5063999;28;20175;-88
2023/02/17 08:28:01;;;;;;;18.92;14.73;;;11.60;99.90;;;;;;5067439;28;20069;-89
2023/02/17 08:30:32;;;;;;;18.30;14.98;;;11.70;99.90;;;;;;5062903;28;20031;-89
2023/02/17 08:33:01;;;;;;;18.48;14.00;;;11.70;99.90;;;;;;5039432;28;20024;-90
2023/02/17 08:35:27;;;;;;;18.92;13.70;;;11.70;99.90;;;;;;5063168;28;20021;-88
2023/02/17 08:37:53;;;;;;;18.10;12.57;;;11.70;99.90;;;;;;5059225;28;20024;-90
2023/02/17 08:40:23;;;;;;;16.88;12.98;;;11.70;99.90;;;;;;5062205;28;20510;-89
2023/02/17 08:42:49;;;;;;;17.30;13.80;;;11.70;99.90;;;;;;5063486;28;20476;-89
2023/02/17 08:45:15;;;;;;;17.98;13.32;;;11.80;99.90;;;;;;5059309;28;20027;-88
2023/02/17 08:47:49;;;;;;;20.67;14.00;;;11.80;99.90;;;;;;5059412;28;20124;-88
2023/02/17 08:50:16;;;;;;;15.57;12.55;;;11.80;99.90;;;;;;5059111;28;20353;-88
2023/02/17 08:52:44;;;;;;;16.73;12.65;;;11.80;99.90;;;;;;5059738;28;20033;-88
2023/02/17 08:55:10;;;;;;;15.18;11.65;;;11.90;99.90;;;;;;5067541;28;20028;-89
2023/02/17 08:57:35;;;;;;;15.80;10.98;;;11.90;99.90;;;;;;5046874;28;20459;-88
2023/02/17 09:00:04;;;;;;;15.80;10.20;;;11.90;99.90;;;;;;5060655;28;20064;-88
2023/02/17 09:02:30;;;;;;;15.57;11.05;;;12.00;99.90;;;;;;5067951;28;20020;-87
2023/02/17 09:04:55;;;;;;;14.60;11.02;;;12.00;99.90;;;;;;5048461;28;20048;-88
2023/02/17 09:07:21;;;;;;;12.50;9.38;;;12.00;99.90;;;;;;5044259;28;20472;-88
2023/02/17 09:09:47;;;;;;;12.05;8.57;;;12.00;99.90;;;;;;5061238;28;20028;-89
2023/02/17 09:12:13;;;;;;;14.55;9.68;;;12.00;99.90;;;;;;5062739;28;20035;-88
2023/02/17 09:14:59;;;;;;;14.57;8.77;;;12.00;99.90;;;;;;5065325;28;20024;-88
2023/02/17 09:17:24;;;;;;;13.60;9.20;;;12.00;99.90;;;;;;5063135;28;20032;-88
2023/02/17 09:19:50;;;;;;;11.38;9.20;;;12.00;99.90;;;;;;5041521;28;20400;-88
2023/02/17 09:22:16;;;;;;;14.45;9.30;;;12.00;99.90;;;;;;5091639;28;20483;-88
2023/02/17 09:24:43;;;;;;;11.90;9.05;;;12.10;99.90;;;;;;5044163;28;20032;-88
2023/02/17 09:27:16;;;;;;;12.70;8.60;;;12.10;99.90;;;;;;5059655;28;20048;-88
2023/02/17 09:29:44;;;;;;;12.13;8.88;;;12.10;99.90;;;;;;5063881;28;20024;-89
2023/02/17 09:32:13;;;;;;;12.70;8.45;;;12.10;99.90;;;;;;5051718;28;20032;-89
2023/02/17 09:34:41;;;;;;;9.48;7.32;;;12.10;99.90;;;;;;5058620;28;20024;-91
2023/02/17 09:37:12;;;;;;;11.05;7.18;;;12.10;99.90;;;;;;5043124;28;20021;-90
2023/02/17 09:39:59;;;;;;;9.50;6.78;;;12.20;99.90;;;;;;5065569;28;20032;-91
2023/02/17 09:42:33;;;;;;;7.90;6.30;;;12.10;99.90;;;;;;5058927;28;20028;-90
2023/02/17 09:45:03;;;;;;;9.30;6.22;;;12.20;99.90;;;;;;5079854;28;20035;-91
2023/02/17 09:47:43;;;;;;;9.20;6.38;;;12.20;99.90;;;;;;5066686;28;20028;-92
2023/02/17 09:50:41;;;;;;;9.77;6.82;;;12.20;99.90;;;;;;5061461;28;20361;-91
2023/02/17 09:53:27;;;;;;;8.80;6.53;;;12.20;99.90;;;;;;5055224;28;20047;-91
2023/02/17 09:56:03;;;;;;;8.35;6.05;;;12.30;99.90;;;;;;5061160;28;20055;-90
2023/02/17 09:58:38;;;;;;;7.90;5.75;;;12.20;99.90;;;;;;5062728;28;20485;-91
2023/02/17 10:04:06;;;;;;;7.53;5.30;;;12.30;99.90;;;;;;5076271;28;20120;-92
2023/02/17 10:06:43;;;;;;;7.28;5.60;;;12.30;99.90;;;;;;5069280;28;20052;-91
2023/02/17 10:09:31;;;;;;;7.68;5.57;;;12.30;99.90;;;;;;5067182;28;20024;-89
2023/02/17 10:12:14;;;;;;;7.88;5.10;;;12.30;99.90;;;;;;5054245;28;20086;-91
2023/02/17 10:14:46;;;;;;;7.65;5.05;;;12.30;99.90;;;;;;5070908;28;20021;-89
2023/02/17 10:17:25;;;;;;;7.28;5.05;;;12.30;99.90;;;;;;5065250;28;20055;-89
2023/02/17 10:20:22;;;;;;;7.53;4.30;;;12.30;99.90;;;;;;5064306;28;20029;-89
2023/02/17 10:23:01;;;;;;;7.78;4.88;;;12.30;99.90;;;;;;5056987;28;20426;-90
2023/02/17 10:25:56;;;;;;;6.40;4.57;;;12.30;99.90;;;;;;5061873;28;20036;-89
2023/02/17 10:28:43;;;;;;;6.95;4.40;;;12.30;99.90;;;;;;5091980;28;20078;-88
2023/02/17 10:31:20;;;;;;;5.78;4.40;;;12.30;99.90;;;;;;5065912;28;20025;-88
2023/02/17 10:34:18;;;;;;;7.45;4.43;;;12.40;99.90;;;;;;5084564;28;20043;-90
2023/02/17 10:37:32;;;;;;;;;;;;;;;;;;;;;
2023/02/17 10:40:00;;;;;;;6.32;4.30;;;12.30;99.90;;;;;;5070785;28;20499;-88
2023/02/17 10:42:47;;;;;;;6.47;4.35;;;12.30;99.90;;;;;;5061427;28;20110;-89
2023/02/17 10:45:36;;;;;;;7.32;4.38;;;12.40;99.90;;;;;;5053655;28;20399;-89
2023/02/17 10:48:14;;;;;;;7.00;4.50;;;12.40;99.90;;;;;;5061084;28;20023;-89
2023/02/17 10:50:47;;;;;;;7.28;4.78;;;12.40;99.90;;;;;;5040397;28;20115;-89
2023/02/17 10:53:20;;;;;;;6.85;4.72;;;12.40;99.90;;;;;;5060960;28;20037;-90
2023/02/17 10:56:07;;;;;;;6.90;4.88;;;12.40;99.90;;;;;;5084127;28;20020;-88
2023/02/17 10:58:40;;;;;;;7.85;4.55;;;12.40;99.90;;;;;;5058174;28;20411;-91
2023/02/17 11:01:07;;;;;;;7.22;4.53;;;12.40;99.90;;;;;;5057198;28;20017;-89
2023/02/17 11:03:39;;;;;;;7.97;4.88;;;12.40;99.90;;;;;;5057712;28;20083;-90
2023/02/17 11:06:16;;;;;;;9.80;4.85;;;12.40;99.90;;;;;;5062026;28;20317;-89
2023/02/17 11:08:58;;;;;;;8.10;5.25;;;12.40;99.90;;;;;;5058721;28;20028;-89
2023/02/17 11:11:34;;;;;;;8.68;5.32;;;12.40;99.90;;;;;;5082627;28;20020;-90
2023/02/17 11:14:16;;;;;;;7.15;4.82;;;12.40;99.90;;;;;;5077198;28;20036;-88
2023/02/17 11:16:46;;;;;;;6.90;4.88;;;12.50;99.90;;;;;;5084459;28;20012;-87
2023/02/17 11:19:23;;;;;;;8.63;5.40;;;12.40;99.90;;;;;;5089771;28;20027;-88
2023/02/17 11:21:53;;;;;;;8.20;4.57;;;12.50;99.90;;;;;;5065993;28;20035;-90
2023/02/17 11:24:19;;;;;;;8.07;4.78;;;12.50;99.90;;;;;;5081209;28;20005;-91
2023/02/17 11:26:56;;;;;;;8.65;5.13;;;12.50;99.90;;;;;;5071043;28;20087;-89
2023/02/17 11:29:22;;;;;;;7.65;5.03;;;12.50;99.90;;;;;;5064569;28;20570;-91
2023/02/17 11:32:03;;;;;;;29.40;6.18;;;12.50;99.90;;;;;;5029095;28;20524;-90
2023/02/17 11:34:55;;;;;;;7.60;4.85;;;12.50;99.90;;;;;;5078033;28;20012;-90
2023/02/17 11:37:26;;;;;;;6.57;4.35;;;12.50;99.90;;;;;;5060706;28;20028;-89
2023/02/17 11:39:54;;;;;;;9.18;5.10;;;12.60;99.90;;;;;;5062381;28;20039;-89
2023/02/17 11:42:22;;;;;;;10.13;5.47;;;12.50;99.90;;;;;;5079478;28;20016;-90
2023/02/17 11:44:53;;;;;;;6.68;4.32;;;12.60;99.90;;;;;;5072803;28;20034;-87
2023/02/17 11:47:37;;;;;;;6.93;4.18;;;12.60;99.90;;;;;;5049166;28;20020;-90
2023/02/17 11:50:21;;;;;;;9.68;5.28;;;12.60;99.90;;;;;;5077585;28;20117;-88
2023/02/17 11:53:10;;;;;;;10.50;5.07;;;12.60;99.90;;;;;;5053366;28;20040;-87
2023/02/17 11:56:05;;;;;;;;;;;;;;;;;;;;;
2023/02/17 11:59:28;;;;;;;11.60;5.35;;;12.60;99.90;;;;;;5084417;28;20046;-89
2023/02/17 12:02:42;;;;;;;8.13;4.45;;;12.60;99.90;;;;;;5070465;28;20500;-91
2023/02/17 12:05:19;;;;;;;10.30;4.57;;;12.60;99.90;;;;;;5044260;28;20048;-90
2023/02/17 12:08:06;;;;;;;8.98;4.70;;;12.50;99.90;;;;;;5076489;28;20035;-91
2023/02/17 12:11:39;;;;;;;;;;;;;;;;;;;;;
2023/02/17 12:14:22;;;;;;;9.88;5.20;;;12.60;99.90;;;;;;5081710;28;20046;-89
2023/02/17 12:17:28;;;;;;;11.43;6.00;;;12.60;99.90;;;;;;5063888;28;20024;-89
2023/02/17 12:20:14;;;;;;;9.63;6.05;;;12.60;99.90;;;;;;5064780;28;20036;-88
2023/02/17 12:23:22;;;;;;;11.15;6.50;;;12.60;99.90;;;;;;5063703;28;20166;-90
2023/02/17 12:26:09;;;;;;;10.15;5.65;;;12.60;99.90;;;;;;5059217;28;20541;-86
2023/02/17 12:28:42;;;;;;;11.52;6.38;;;12.60;99.90;;;;;;5063818;28;20025;-90
2023/02/17 12:31:20;;;;;;;12.57;6.50;;;12.70;99.90;;;;;;5064283;28;20027;-91
2023/02/17 12:34:05;;;;;;;11.93;7.15;;;12.70;99.90;;;;;;5064437;28;20028;-90
2023/02/17 12:36:37;;;;;;;9.88;6.93;;;12.70;99.90;;;;;;5064237;28;20013;-89
2023/02/17 12:39:27;;;;;;;11.63;7.32;;;12.60;99.90;;;;;;5063480;28;20135;-87
2023/02/17 12:41:59;;;;;;;10.27;7.32;;;12.60;99.90;;;;;;5063332;28;20054;-86
2023/02/17 12:44:37;;;;;;;11.07;7.57;;;12.70;99.90;;;;;;5062724;28;20139;-87
2023/02/17 12:47:13;;;;;;;11.85;7.72;;;12.70;99.90;;;;;;5062962;28;20482;-86
2023/02/17 12:49:53;;;;;;;10.50;7.20;;;12.70;99.90;;;;;;5062442;28;20017;-87
2023/02/17 12:52:29;;;;;;;10.10;7.03;;;12.60;99.90;;;;;;5080328;28;20036;-87
2023/02/17 12:55:08;;;;;;;11.25;7.75;;;12.60;99.90;;;;;;5062746;28;20028;-86
2023/02/17 12:57:46;;;;;;;14.02;7.57;;;12.60;99.90;;;;;;5062930;28;20024;-87
2023/02/17 13:00:24;;;;;;;12.20;8.00;;;12.70;99.90;;;;;;5062824;28;20025;-87
2023/02/17 13:02:49;;;;;;;10.52;7.38;;;12.60;99.90;;;;;;5063018;28;20028;-86
2023/02/17 13:05:32;;;;;;;11.48;7.65;;;12.70;99.90;;;;;;5063144;28;20540;-86
2023/02/17 13:08:18;;;;;;;11.38;7.80;;;12.70;99.90;;;;;;5061605;28;20070;-87
2023/02/17 13:10:43;;;;;;;12.95;7.15;;;12.70;99.90;;;;;;5059613;28;20408;-87
2023/02/17 13:13:29;;;;;;;13.00;7.53;;;12.70;99.90;;;;;;5043436;28;20124;-87